createdAt,value
2017-09-26T00:01:12.802Z,101788.52
2017-09-26T00:03:48.445Z,101788.67
2017-09-26T00:06:23.023Z,101785.30
2017-09-26T00:08:57.883Z,101796.17
2017-09-26T00:11:32.755Z,101791.75
2017-09-26T00:14:08.349Z,101794.78
2017-09-26T00:16:43.407Z,101793.42
2017-09-26T00:19:17.903Z,101796.32
2017-09-26T00:21:52.654Z,101797.59
2017-09-26T00:24:27.394Z,101799.89
2017-09-26T00:27:02.265Z,101798.12
2017-09-26T00:29:37.026Z,101800.30
2017-09-26T00:32:11.746Z,101792.52
2017-09-26T00:34:46.321Z,101794.25
2017-09-26T00:37:20.989Z,101795.38
2017-09-26T00:39:56.010Z,101794.61
2017-09-26T00:42:30.805Z,101791.40
2017-09-26T00:45:05.449Z,101789.63
2017-09-26T00:47:40.455Z,101794.57
2017-09-26T00:50:14.925Z,101786.58
2017-09-26T00:52:49.573Z,101788.06
2017-09-26T00:55:24.057Z,101780.98
2017-09-26T00:57:58.795Z,101789.48
2017-09-26T01:00:38.772Z,101780.26
2017-09-26T01:03:13.869Z,101777.23
2017-09-26T01:05:48.813Z,101775.16
2017-09-26T01:08:23.272Z,101774.88
2017-09-26T01:10:58.415Z,101775.87
2017-09-26T01:13:33.174Z,101777.28
2017-09-26T01:16:07.911Z,101775.74
2017-09-26T01:18:43.441Z,101776.91
2017-09-26T01:21:18.194Z,101775.66
2017-09-26T01:23:52.268Z,101771.38
2017-09-26T01:26:27.037Z,101772.25
2017-09-26T01:29:01.475Z,101776.06
2017-09-26T01:31:35.949Z,101780.69
2017-09-26T01:34:10.749Z,101772.37
2017-09-26T01:36:45.375Z,101767.67
2017-09-26T01:39:20.013Z,101771.05
2017-09-26T01:41:54.649Z,101770.77
2017-09-26T01:44:29.260Z,101775.30
2017-09-26T01:47:04.001Z,101772.05
2017-09-26T01:49:38.553Z,101767.95
2017-09-26T01:52:13.213Z,101773.96
2017-09-26T01:54:47.913Z,101776.46
2017-09-26T02:10:45.600Z,101783.44
2017-09-26T02:13:20.227Z,101787.70
2017-09-26T02:15:55.065Z,101782.28
2017-09-26T02:18:29.612Z,101783.44
2017-09-26T02:21:04.383Z,101786.72
2017-09-26T02:23:38.989Z,101781.42
2017-09-26T02:26:13.808Z,101785.11
2017-09-26T02:28:48.580Z,101780.83
2017-09-26T02:31:23.625Z,101785.48
2017-09-26T02:33:58.549Z,101781.64
2017-09-26T02:36:33.337Z,101779.69
2017-09-26T02:39:08.120Z,101791.00
2017-09-26T02:41:42.889Z,101789.08
2017-09-26T02:44:17.564Z,101790.97
2017-09-26T02:46:52.383Z,101788.45
2017-09-26T02:49:27.112Z,101790.59
2017-09-26T02:52:01.746Z,101802.13
2017-09-26T02:54:36.337Z,101799.73
2017-09-26T02:57:10.753Z,101800.65
2017-09-26T02:59:45.920Z,101800.20
2017-09-26T03:02:20.763Z,101799.36
2017-09-26T03:04:55.561Z,101800.93
2017-09-26T03:07:30.293Z,101799.83
2017-09-26T03:10:05.032Z,101800.33
2017-09-26T03:12:40.168Z,101800.93
2017-09-26T03:15:15.439Z,101798.47
2017-09-26T03:17:50.094Z,101803.23
2017-09-26T03:20:24.825Z,101811.77
2017-09-26T03:22:59.760Z,101805.46
2017-09-26T03:25:34.517Z,101794.47
2017-09-26T03:28:08.959Z,101801.91
2017-09-26T03:30:43.502Z,101799.77
2017-09-26T03:33:18.639Z,101794.09
2017-09-26T03:35:53.569Z,101794.66
2017-09-26T03:38:28.484Z,101792.26
2017-09-26T03:41:03.747Z,101797.80
2017-09-26T03:43:38.260Z,101792.66
2017-09-26T03:46:12.801Z,101798.40
2017-09-26T03:48:47.892Z,101807.06
2017-09-26T03:51:22.592Z,101797.36
2017-09-26T03:53:57.353Z,101807.06
2017-09-26T03:56:32.191Z,101809.23
2017-09-26T03:59:06.812Z,101800.52
2017-09-26T04:01:41.851Z,101801.02
2017-09-26T04:04:16.781Z,101802.12
2017-09-26T04:06:51.169Z,101809.13
2017-09-26T04:09:26.372Z,101804.03
2017-09-26T04:12:01.121Z,101807.03
2017-09-26T04:14:35.857Z,101804.86
2017-09-26T04:17:10.624Z,101801.64
2017-09-26T04:19:45.381Z,101805.36
2017-09-26T04:22:20.478Z,101805.87
2017-09-26T04:24:55.341Z,101807.84
2017-09-26T04:27:30.127Z,101802.27
2017-09-26T04:30:05.249Z,101805.87
2017-09-26T04:32:39.929Z,101810.87
2017-09-26T04:35:24.429Z,101807.38
2017-09-26T04:37:59.057Z,101815.25
2017-09-26T04:40:34.038Z,101808.58
2017-09-26T04:43:09.049Z,101805.42
2017-09-26T04:45:43.985Z,101808.13
2017-09-26T04:48:18.850Z,101809.40
2017-09-26T04:50:53.705Z,101812.52
2017-09-26T04:53:29.231Z,101808.50
2017-09-26T04:56:04.237Z,101810.27
2017-09-26T04:58:38.989Z,101814.53
2017-09-26T05:01:13.604Z,101815.25
2017-09-26T05:03:48.411Z,101817.55
2017-09-26T05:06:23.519Z,101821.45
2017-09-26T05:08:58.257Z,101817.48
2017-09-26T05:11:33.001Z,101821.64
2017-09-26T05:14:07.932Z,101814.46
2017-09-26T05:16:42.760Z,101825.25
2017-09-26T05:19:17.091Z,101824.22
2017-09-26T05:21:52.117Z,101823.40
2017-09-26T05:24:26.925Z,101817.64
2017-09-26T05:27:01.648Z,101827.44
2017-09-26T05:29:36.451Z,101827.38
2017-09-26T05:32:11.329Z,101826.65
2017-09-26T05:34:46.266Z,101830.41
2017-09-26T05:37:21.677Z,101833.09
2017-09-26T05:39:56.732Z,101829.78
2017-09-26T05:42:31.144Z,101837.10
2017-09-26T05:45:05.985Z,101840.13
2017-09-26T05:47:40.761Z,101842.16
2017-09-26T05:50:15.729Z,101838.75
2017-09-26T05:52:50.470Z,101838.34
2017-09-26T05:55:25.485Z,101839.41
2017-09-26T05:58:00.394Z,101846.13
2017-09-26T06:00:35.463Z,101852.18
2017-09-26T06:03:10.625Z,101849.09
2017-09-26T06:05:45.266Z,101856.63
2017-09-26T06:08:19.835Z,101850.95
2017-09-26T06:10:54.656Z,101856.66
2017-09-26T06:13:29.240Z,101857.48
2017-09-26T06:16:03.918Z,101866.17
2017-09-26T06:18:38.638Z,101867.81
2017-09-26T06:21:14.278Z,101865.58
2017-09-26T06:23:48.639Z,101871.66
2017-09-26T06:26:23.265Z,101868.80
2017-09-26T06:28:57.909Z,101868.86
2017-09-26T06:31:32.449Z,101872.80
2017-09-26T06:34:07.229Z,101871.16
2017-09-26T06:36:41.887Z,101867.28
2017-09-26T06:39:17.001Z,101869.68
2017-09-26T06:41:51.848Z,101865.86
2017-09-26T06:44:26.885Z,101870.05
2017-09-26T06:47:01.629Z,101869.17
2017-09-26T06:49:36.075Z,101876.09
2017-09-26T06:52:10.967Z,101876.83
2017-09-26T06:54:46.116Z,101873.08
2017-09-26T06:57:21.145Z,101875.09
2017-09-26T06:59:56.001Z,101884.45
2017-09-26T07:02:30.778Z,101884.49
2017-09-26T07:05:05.510Z,101886.42
2017-09-26T07:07:41.230Z,101892.73
2017-09-26T07:10:15.870Z,101894.81
2017-09-26T07:12:50.715Z,101897.52
2017-09-26T07:15:25.477Z,101896.86
2017-09-26T07:18:00.156Z,101897.52
2017-09-26T07:20:40.489Z,101891.19
2017-09-26T07:23:15.393Z,101889.45
2017-09-26T07:25:50.199Z,101897.90
2017-09-26T07:28:25.865Z,101900.48
2017-09-26T07:31:01.314Z,101896.98
2017-09-26T07:33:36.125Z,101897.55
2017-09-26T07:36:10.901Z,101901.42
2017-09-26T07:38:45.896Z,101905.19
2017-09-26T07:41:20.702Z,101900.55
2017-09-26T07:43:55.658Z,101907.08
2017-09-26T07:46:30.593Z,101907.77
2017-09-26T07:49:05.517Z,101919.17
2017-09-26T07:51:40.157Z,101918.32
2017-09-26T07:54:14.838Z,101926.53
2017-09-26T07:56:50.182Z,101924.95
2017-09-26T07:59:24.829Z,101921.52
2017-09-26T08:01:59.743Z,101920.13
2017-09-26T08:04:34.517Z,101921.48
2017-09-26T08:07:09.057Z,101919.06
2017-09-26T08:09:43.773Z,101919.69
2017-09-26T08:12:18.402Z,101922.56
2017-09-26T08:14:53.140Z,101918.20
2017-09-26T08:17:28.185Z,101915.56
2017-09-26T08:20:03.015Z,101915.15
2017-09-26T08:22:38.217Z,101907.39
2017-09-26T08:25:12.989Z,101913.34
2017-09-26T08:27:47.687Z,101914.45
2017-09-26T08:30:23.311Z,101914.86
2017-09-26T08:32:58.167Z,101921.38
2017-09-26T08:35:33.024Z,101914.19
2017-09-26T08:38:07.609Z,101918.33
2017-09-26T08:40:42.185Z,101924.20
2017-09-26T08:43:17.004Z,101916.50
2017-09-26T08:45:51.795Z,101912.58
2017-09-26T08:48:26.728Z,101912.78
2017-09-26T08:51:01.783Z,101906.97
2017-09-26T08:53:36.731Z,101914.35
2017-09-26T08:56:12.050Z,101914.50
2017-09-26T08:58:46.917Z,101911.96
2017-09-26T09:01:21.728Z,101919.30
2017-09-26T09:03:56.756Z,101915.14
2017-09-26T09:06:31.423Z,101915.59
2017-09-26T09:09:06.413Z,101921.32
2017-09-26T09:11:41.169Z,101910.48
2017-09-26T09:14:16.317Z,101912.91
2017-09-26T09:16:50.945Z,101917.66
2017-09-26T09:19:25.843Z,101912.80
2017-09-26T09:22:00.708Z,101911.77
2017-09-26T09:24:36.529Z,101915.40
2017-09-26T09:27:11.233Z,101922.28
2017-09-26T09:29:46.117Z,101916.72
2017-09-26T09:32:21.437Z,101919.25
2017-09-26T09:34:56.397Z,101916.93
2017-09-26T09:37:31.301Z,101909.59
2017-09-26T09:40:05.791Z,101920.09
2017-09-26T09:42:40.834Z,101916.59
2017-09-26T09:45:15.620Z,101919.81
2017-09-26T09:47:51.049Z,101916.64
2017-09-26T09:50:25.628Z,101923.93
2017-09-26T09:53:00.574Z,101921.82
2017-09-26T09:55:35.816Z,101929.13
2017-09-26T09:58:10.833Z,101931.09
2017-09-26T10:00:45.602Z,101928.72
2017-09-26T10:03:20.606Z,101932.12
2017-09-26T10:05:55.465Z,101935.80
2017-09-26T10:08:30.391Z,101927.30
2017-09-26T10:11:05.291Z,101932.02
2017-09-26T10:13:39.930Z,101930.16
2017-09-26T10:16:14.805Z,101923.00
2017-09-26T10:18:49.580Z,101919.66
2017-09-26T10:21:24.465Z,101921.57
2017-09-26T10:23:59.370Z,101925.80
2017-09-26T10:26:34.220Z,101921.01
2017-09-26T10:29:09.018Z,101929.44
2017-09-26T10:31:43.968Z,101935.15
2017-09-26T10:34:18.906Z,101929.78
2017-09-26T10:36:54.058Z,101922.67
2017-09-26T10:39:29.185Z,101934.38
2017-09-26T10:42:04.096Z,101932.41
2017-09-26T10:44:39.415Z,101943.33
2017-09-26T10:47:14.794Z,101938.77
2017-09-26T10:49:49.776Z,101936.95
2017-09-26T10:52:24.622Z,101940.01
2017-09-26T10:54:59.628Z,101934.63
2017-09-26T10:57:34.699Z,101941.44
2017-09-26T11:00:09.756Z,101940.65
2017-09-26T11:02:44.903Z,101938.31
2017-09-26T11:05:19.825Z,101946.89
2017-09-26T11:07:54.473Z,101933.94
2017-09-26T11:10:29.550Z,101934.80
2017-09-26T11:13:03.765Z,101927.30
2017-09-26T11:15:38.659Z,101927.98
2017-09-26T11:18:13.039Z,101928.45
2017-09-26T11:20:48.500Z,101922.14
2017-09-26T11:23:22.820Z,101923.19
2017-09-26T11:25:57.772Z,101928.30
2017-09-26T11:28:32.656Z,101929.05
2017-09-26T11:31:07.630Z,101922.45
2017-09-26T11:33:42.677Z,101923.03
2017-09-26T11:36:17.573Z,101926.19
2017-09-26T11:38:52.340Z,101923.77
2017-09-26T11:41:27.361Z,101920.11
2017-09-26T11:44:02.619Z,101920.53
2017-09-26T11:46:37.750Z,101918.31
2017-09-26T11:49:12.692Z,101924.19
2017-09-26T11:51:48.101Z,101925.70
2017-09-26T11:54:22.869Z,101927.85
2017-09-26T11:56:57.473Z,101926.34
2017-09-26T11:59:37.790Z,101925.72
2017-09-26T12:02:12.325Z,101930.55
2017-09-26T12:04:47.096Z,101928.73
2017-09-26T12:07:22.088Z,101930.28
2017-09-26T12:09:56.809Z,101923.73
2017-09-26T12:12:31.604Z,101919.13
2017-09-26T12:15:06.984Z,101918.08
2017-09-26T12:17:42.300Z,101915.16
2017-09-26T12:20:17.349Z,101913.12
2017-09-26T12:22:52.159Z,101911.02
2017-09-26T12:25:26.801Z,101913.91
2017-09-26T12:28:01.921Z,101909.55
2017-09-26T12:30:36.732Z,101906.95
2017-09-26T12:33:11.576Z,101907.20
2017-09-26T12:35:46.596Z,101904.05
2017-09-26T12:38:21.025Z,101903.22
2017-09-26T12:40:55.873Z,101901.48
2017-09-26T12:43:30.814Z,101901.70
2017-09-26T12:46:05.643Z,101898.09
2017-09-26T12:48:40.501Z,101899.20
2017-09-26T12:51:15.416Z,101896.61
2017-09-26T12:53:50.255Z,101891.66
2017-09-26T12:56:25.085Z,101900.08
2017-09-26T12:59:00.109Z,101893.58
2017-09-26T13:01:35.103Z,101890.54
2017-09-26T13:04:10.014Z,101889.92
2017-09-26T13:06:45.076Z,101888.28
2017-09-26T13:09:19.972Z,101883.66
2017-09-26T13:11:55.320Z,101885.10
2017-09-26T13:14:30.216Z,101887.88
2017-09-26T13:17:05.285Z,101884.97
2017-09-26T13:19:39.621Z,101883.16
2017-09-26T13:22:14.579Z,101881.94
2017-09-26T13:24:49.848Z,101885.62
2017-09-26T13:27:24.936Z,101888.52
2017-09-26T13:29:59.440Z,101896.72
2017-09-26T13:32:34.378Z,101892.28
2017-09-26T13:35:09.178Z,101889.44
2017-09-26T13:37:44.204Z,101892.08
2017-09-26T13:40:18.914Z,101895.21
2017-09-26T13:42:53.649Z,101892.83
2017-09-26T13:45:28.505Z,101889.66
2017-09-26T13:48:03.467Z,101896.61
2017-09-26T13:50:38.143Z,101895.16
2017-09-26T13:53:13.358Z,101892.21
2017-09-26T13:55:47.791Z,101893.89
2017-09-26T13:58:22.729Z,101888.62
2017-09-26T14:00:57.569Z,101882.07
2017-09-26T14:03:32.429Z,101890.28
2017-09-26T14:06:07.254Z,101887.52
2017-09-26T14:08:42.013Z,101878.83
2017-09-26T14:11:16.856Z,101882.45
2017-09-26T14:13:51.684Z,101881.55
2017-09-26T14:16:26.818Z,101885.47
2017-09-26T14:19:01.861Z,101893.28
2017-09-26T14:21:36.816Z,101882.77
2017-09-26T14:24:11.772Z,101887.59
2017-09-26T14:26:46.809Z,101897.25
2017-09-26T14:29:21.539Z,101899.00
2017-09-26T14:31:56.353Z,101899.97
2017-09-26T14:34:31.433Z,101893.78
2017-09-26T14:37:06.457Z,101902.17
2017-09-26T14:39:40.950Z,101893.90
2017-09-26T14:42:15.687Z,101899.84
2017-09-26T14:44:50.625Z,101895.92
2017-09-26T14:47:25.433Z,101888.90
2017-09-26T14:49:59.975Z,101887.55
2017-09-26T14:52:34.696Z,101895.53
2017-09-26T14:55:09.418Z,101885.97
2017-09-26T14:57:43.969Z,101892.52
2017-09-26T15:00:18.878Z,101897.52
2017-09-26T15:02:54.629Z,101899.41
2017-09-26T15:05:29.569Z,101898.67
2017-09-26T15:08:04.287Z,101896.61
2017-09-26T15:10:39.112Z,101896.11
2017-09-26T15:13:14.401Z,101890.47
2017-09-26T15:15:49.227Z,101894.78
2017-09-26T15:18:24.414Z,101893.54
2017-09-26T15:20:59.165Z,101897.55
2017-09-26T15:23:33.985Z,101897.86
2017-09-26T15:26:08.709Z,101906.78
2017-09-26T15:28:43.643Z,101909.22
2017-09-26T15:31:18.465Z,101912.60
2017-09-26T15:33:53.430Z,101908.22
2017-09-26T15:36:28.024Z,101906.67
2017-09-26T15:39:02.540Z,101906.67
2017-09-26T15:41:37.670Z,101912.40
2017-09-26T15:44:12.755Z,101908.20
2017-09-26T15:46:47.502Z,101902.52
2017-09-26T15:49:22.461Z,101910.91
2017-09-26T15:51:57.537Z,101906.78
2017-09-26T15:54:32.357Z,101911.53
2017-09-26T15:57:07.466Z,101915.02
2017-09-26T15:59:42.273Z,101916.26
2017-09-26T16:02:17.268Z,101929.32
2017-09-26T16:04:52.144Z,101924.28
2017-09-26T16:07:27.269Z,101927.66
2017-09-26T16:10:02.059Z,101934.57
2017-09-26T16:12:36.876Z,101930.75
2017-09-26T16:15:11.756Z,101927.59
2017-09-26T16:17:46.650Z,101933.10
2017-09-26T16:20:21.497Z,101938.02
2017-09-26T16:22:56.306Z,101938.09
2017-09-26T16:25:31.153Z,101935.66
2017-09-26T16:28:06.105Z,101940.05
2017-09-26T16:30:40.944Z,101940.12
2017-09-26T16:33:16.185Z,101937.70
2017-09-26T16:35:52.490Z,101929.44
2017-09-26T16:38:27.001Z,101946.03
2017-09-26T16:41:01.608Z,101934.91
2017-09-26T16:43:36.548Z,101932.95
2017-09-26T16:46:11.545Z,101930.69
2017-09-26T16:48:46.526Z,101931.69
2017-09-26T16:51:21.632Z,101927.39
2017-09-26T16:53:56.382Z,101931.26
2017-09-26T16:56:31.745Z,101938.67
2017-09-26T16:59:07.315Z,101938.17
2017-09-26T17:01:42.717Z,101937.54
2017-09-26T17:04:17.414Z,101937.88
2017-09-26T17:06:52.168Z,101943.41
2017-09-26T17:09:27.234Z,101940.61
2017-09-26T17:12:02.160Z,101942.26
2017-09-26T17:14:37.016Z,101945.98
2017-09-26T17:17:12.354Z,101940.58
2017-09-26T17:19:47.003Z,101939.70
2017-09-26T17:22:21.745Z,101937.75
2017-09-26T17:24:56.590Z,101944.78
2017-09-26T17:27:31.442Z,101942.14
2017-09-26T17:30:06.270Z,101953.00
2017-09-26T17:32:41.137Z,101959.09
2017-09-26T17:35:15.929Z,101962.94
2017-09-26T17:37:50.888Z,101973.22
2017-09-26T17:40:25.907Z,101976.99
2017-09-26T17:43:01.309Z,101977.84
2017-09-26T17:45:35.892Z,101979.51
2017-09-26T17:48:11.942Z,101978.45
2017-09-26T17:50:51.798Z,101975.63
2017-09-26T17:53:26.465Z,101985.05
2017-09-26T17:56:02.178Z,101984.36
2017-09-26T17:58:36.657Z,101988.63
2017-09-26T18:01:11.748Z,101994.60
2017-09-26T18:03:46.846Z,101991.99
2017-09-26T18:06:21.789Z,102004.66
2017-09-26T18:08:56.349Z,102004.70
2017-09-26T18:11:31.265Z,102003.05
2017-09-26T18:27:08.584Z,102010.58
2017-09-26T18:29:43.992Z,102010.44
2017-09-26T18:32:18.805Z,102016.75
2017-09-26T18:34:53.662Z,102020.47
2017-09-26T18:37:28.202Z,102015.52
2017-09-26T18:40:02.898Z,102014.67
2017-09-26T18:42:37.594Z,102026.15
2017-09-26T18:45:12.545Z,102026.59
2017-09-26T18:47:47.738Z,102022.38
2017-09-26T18:50:22.392Z,102021.56
2017-09-26T18:52:57.348Z,102019.66
2017-09-26T18:55:32.037Z,102021.08
2017-09-26T18:58:06.955Z,102023.25
2017-09-26T19:00:42.800Z,102020.88
2017-09-26T19:03:17.230Z,102023.20
2017-09-26T19:05:51.973Z,102032.95
2017-09-26T19:08:26.729Z,102034.25
2017-09-26T19:11:01.473Z,102024.88
2017-09-26T19:13:36.126Z,102025.22
2017-09-26T19:16:13.189Z,102021.77
2017-09-26T19:18:48.668Z,102022.83
2017-09-26T19:21:23.410Z,102024.18
2017-09-26T19:23:58.266Z,102017.38
2017-09-26T19:26:33.128Z,102023.48
2017-09-26T19:29:07.933Z,102015.03
2017-09-26T19:31:42.717Z,102022.41
2017-09-26T19:34:17.345Z,102016.05
2017-09-26T19:36:52.052Z,102018.34
2017-09-26T19:39:26.973Z,102021.13
2017-09-26T19:42:02.682Z,102019.77
2017-09-26T19:44:37.400Z,102021.69
2017-09-26T19:47:12.199Z,102019.04
2017-09-26T19:49:47.013Z,102030.03
2017-09-26T19:52:21.747Z,102026.30
2017-09-26T19:54:56.293Z,102020.37
2017-09-26T19:57:31.970Z,102022.13
2017-09-26T20:00:06.942Z,102023.88
2017-09-26T20:02:41.464Z,102020.34
2017-09-26T20:05:16.229Z,102016.06
2017-09-26T20:07:51.283Z,102012.56
2017-09-26T20:10:25.865Z,102015.50
2017-09-26T20:13:00.688Z,102006.73
2017-09-26T20:15:35.492Z,102010.48
2017-09-26T20:18:10.340Z,102009.57
2017-09-26T20:20:45.552Z,102008.12
2017-09-26T20:23:20.509Z,101999.22
2017-09-26T20:25:55.648Z,102005.73
2017-09-26T20:28:30.157Z,102003.92
2017-09-26T20:31:04.892Z,102002.85
2017-09-26T20:33:39.641Z,102005.06
2017-09-26T20:36:14.503Z,102006.55
2017-09-26T20:38:49.397Z,101993.84
2017-09-26T20:41:24.152Z,101994.81
2017-09-26T20:43:59.325Z,101999.76
2017-09-26T20:46:33.870Z,102002.83
2017-09-26T20:49:08.655Z,102006.96
2017-09-26T20:51:43.508Z,102005.98
2017-09-26T20:54:18.219Z,102010.66
2017-09-26T20:56:52.736Z,102005.22
2017-09-26T20:59:27.677Z,102009.47
2017-09-26T21:02:02.333Z,102004.84
2017-09-26T21:04:37.108Z,102011.09
2017-09-26T21:07:11.965Z,102005.91
2017-09-26T21:09:46.693Z,102011.62
2017-09-26T21:12:21.328Z,102006.97
2017-09-26T21:14:56.216Z,101999.83
2017-09-26T21:17:31.209Z,101999.68
2017-09-26T21:20:05.711Z,102006.27
2017-09-26T21:22:40.703Z,102009.82
2017-09-26T21:25:15.450Z,102003.89
2017-09-26T21:27:50.292Z,102007.26
2017-09-26T21:30:24.966Z,102010.09
2017-09-26T21:32:59.612Z,102010.22
2017-09-26T21:35:34.615Z,102010.16
2017-09-26T21:38:09.979Z,102008.95
2017-09-26T21:40:45.061Z,102014.22
2017-09-26T21:43:20.265Z,102017.84
2017-09-26T21:45:55.216Z,102026.94
2017-09-26T21:48:30.376Z,102022.61
2017-09-26T21:51:05.298Z,102024.09
2017-09-26T21:53:40.228Z,102024.79
2017-09-26T21:56:14.724Z,102029.88
2017-09-26T21:58:49.693Z,102027.38
2017-09-26T22:01:25.157Z,102027.50
2017-09-26T22:03:59.872Z,102031.13
2017-09-26T22:06:34.608Z,102016.81
2017-09-26T22:09:09.441Z,102023.44
2017-09-26T22:11:43.933Z,102025.20
2017-09-26T22:14:19.195Z,102020.41
2017-09-26T22:16:54.361Z,102018.34
2017-09-26T22:19:29.154Z,102017.90
2017-09-26T22:22:04.005Z,102018.17
2017-09-26T22:24:38.800Z,102022.49
2017-09-26T22:27:13.709Z,102015.02
2017-09-26T22:29:48.527Z,102015.84
2017-09-26T22:32:23.293Z,102016.69
2017-09-26T22:34:57.973Z,102016.16
2017-09-26T22:37:33.464Z,102013.66
2017-09-26T22:40:08.248Z,102012.55
2017-09-26T22:42:43.079Z,102010.60
2017-09-26T22:45:17.723Z,102011.07
2017-09-26T22:47:52.537Z,102003.13
2017-09-26T22:50:28.525Z,101999.70
2017-09-26T22:53:03.477Z,102001.91
2017-09-26T22:55:38.450Z,102002.68
2017-09-26T22:58:13.354Z,102009.13
2017-09-26T23:00:47.757Z,102001.97
2017-09-26T23:03:23.087Z,102004.86
2017-09-26T23:05:58.200Z,102001.64
2017-09-26T23:08:32.445Z,101998.56
2017-09-26T23:11:07.750Z,101994.38
2017-09-26T23:13:42.985Z,101993.97
2017-09-26T23:16:17.925Z,101996.05
2017-09-26T23:18:52.734Z,101996.11
2017-09-26T23:21:27.676Z,101993.67
2017-09-26T23:24:02.589Z,101995.84
2017-09-26T23:26:37.405Z,101989.61
2017-09-26T23:29:12.704Z,101988.25
2017-09-26T23:31:48.425Z,101989.46
2017-09-26T23:34:23.049Z,101990.44
2017-09-26T23:36:58.056Z,101992.37
2017-09-26T23:39:32.884Z,101988.38
2017-09-26T23:42:07.861Z,101989.26
2017-09-26T23:44:42.401Z,101983.87
2017-09-26T23:47:17.305Z,101982.63
2017-09-26T23:49:52.097Z,101985.08
2017-09-26T23:52:26.573Z,101981.16
2017-09-26T23:55:01.302Z,101990.48
2017-09-26T23:57:36.315Z,101986.56
